Terminal Aerodrome Forecast
Issued by NWS

Home | Current Version | Previous Version | Text Only | Print | Product List | Glossary Off
Versions: 1 2 3 4 5 6 7 8 9 10 11 12 13 14 15 16 17 18

000
FTUS43 KICT 251729 AAB
TAFCNU
TAF AMD
KCNU 251729Z 2517/2618 33010KT 5SM -RA BR OVC008
      TEMPO 2518/2522 2SM -RA
     FM252300 34011KT P6SM VCSH OVC009
     FM260200 35009KT P6SM VCSH OVC015
     FM260700 34005KT P6SM BKN050
     FM261000 33004KT 5SM BR SCT250=

USA.gov is the U.S. government's official web portal to all federal, state and local government web resources and services.